Time;durP1;ratioP1;P1;durP2;ratioP2;P2;SDS_P1;SDS_P2;PMS_P1;PMS_P2;Temp;Humidity;BMP_temperature;BMP_pressure;BME280_temperature;BME280_humidity;BME280_pressure;Samples;Min_cycle;Max_cycle;Signal;HPM_P1;HPM_P2
2024/02/24 00:00:48;;;;;;;13.32;7.72;;;;;;;;;;5018893;28;20120;-64
2024/02/24 00:03:15;;;;;;;14.30;8.35;;;;;;;;;;5023798;28;20045;-64
2024/02/24 00:05:41;;;;;;;11.48;7.82;;;;;;;;;;5028767;28;20195;-64
2024/02/24 00:08:07;;;;;;;12.25;7.07;;;;;;;;;;5018669;28;20033;-64
2024/02/24 00:10:33;;;;;;;14.73;7.88;;;;;;;;;;5022377;28;20051;-64
2024/02/24 00:13:00;;;;;;;16.50;6.93;;;;;;;;;;5029055;28;20128;-64
2024/02/24 00:15:27;;;;;;;15.50;7.65;;;;;;;;;;5026197;28;20045;-64
2024/02/24 00:17:53;;;;;;;18.08;7.38;;;;;;;;;;5032273;28;20449;-64
2024/02/24 00:20:19;;;;;;;14.13;7.03;;;;;;;;;;5032496;28;20069;-64
2024/02/24 00:22:45;;;;;;;11.10;6.57;;;;;;;;;;5035411;28;20059;-64
2024/02/24 00:25:12;;;;;;;14.55;6.35;;;;;;;;;;5037777;28;20373;-64
2024/02/24 00:27:38;;;;;;;14.80;6.35;;;;;;;;;;5033405;28;20049;-64
2024/02/24 00:30:04;;;;;;;10.23;5.10;;;;;;;;;;5034349;28;20041;-64
2024/02/24 00:32:30;;;;;;;8.98;5.05;;;;;;;;;;5033415;28;20041;-64
2024/02/24 00:34:56;;;;;;;10.68;5.53;;;;;;;;;;5040994;28;20049;-64
2024/02/24 00:37:23;;;;;;;10.38;5.40;;;;;;;;;;5033958;28;20045;-64
2024/02/24 00:39:49;;;;;;;9.55;4.63;;;;;;;;;;5032418;28;20127;-64
2024/02/24 00:42:15;;;;;;;9.57;5.90;;;;;;;;;;5033777;28;20476;-64
2024/02/24 00:44:41;;;;;;;10.77;5.63;;;;;;;;;;5037532;28;20037;-64
2024/02/24 00:47:07;;;;;;;11.20;4.57;;;;;;;;;;5033059;28;20670;-64
2024/02/24 00:49:34;;;;;;;12.48;4.85;;;;;;;;;;5031712;28;20100;-64
2024/02/24 00:52:00;;;;;;;9.05;4.05;;;;;;;;;;5036302;28;20350;-64
2024/02/24 00:54:26;;;;;;;11.27;5.05;;;;;;;;;;5030771;28;20114;-64
2024/02/24 00:56:53;;;;;;;10.40;4.40;;;;;;;;;;5026308;28;20041;-64
2024/02/24 00:59:19;;;;;;;12.68;4.80;;;;;;;;;;5032671;28;20045;-64
2024/02/24 01:01:45;;;;;;;8.32;4.60;;;;;;;;;;5023784;28;20489;-64
2024/02/24 01:04:11;;;;;;;13.43;4.82;;;;;;;;;;5036355;28;20147;-64
2024/02/24 01:06:37;;;;;;;10.30;4.97;;;;;;;;;;5033866;28;20405;-64
2024/02/24 01:09:04;;;;;;;13.43;5.45;;;;;;;;;;5035106;28;20033;-64
2024/02/24 01:11:31;;;;;;;9.82;4.93;;;;;;;;;;5024819;28;20394;-64
2024/02/24 01:13:57;;;;;;;11.25;5.10;;;;;;;;;;5019017;28;20046;-64
2024/02/24 01:16:23;;;;;;;13.90;5.22;;;;;;;;;;5029040;28;20046;-64
2024/02/24 01:18:49;;;;;;;10.50;4.78;;;;;;;;;;5014643;28;20052;-64
2024/02/24 01:21:16;;;;;;;7.82;4.70;;;;;;;;;;5017834;28;20085;-64
2024/02/24 01:23:42;;;;;;;9.18;5.07;;;;;;;;;;5034522;28;20504;-64
2024/02/24 01:26:08;;;;;;;8.93;4.95;;;;;;;;;;5033603;28;20070;-64
2024/02/24 01:28:36;;;;;;;8.93;4.22;;;;;;;;;;5027363;28;20085;-64
2024/02/24 01:31:03;;;;;;;9.00;4.80;;;;;;;;;;5028774;28;20055;-64
2024/02/24 01:33:29;;;;;;;10.23;4.20;;;;;;;;;;5031573;28;20037;-64
2024/02/24 01:35:55;;;;;;;9.30;4.63;;;;;;;;;;5031313;28;20045;-64
2024/02/24 01:38:21;;;;;;;11.48;4.80;;;;;;;;;;5037850;28;20048;-64
2024/02/24 01:40:48;;;;;;;11.25;5.20;;;;;;;;;;5032781;28;20060;-64
2024/02/24 01:43:24;;;;;;;9.13;4.43;;;;;;;;;;5033984;28;20236;-64
2024/02/24 01:45:51;;;;;;;14.90;5.10;;;;;;;;;;5031471;28;20041;-64
2024/02/24 01:48:17;;;;;;;12.02;5.97;;;;;;;;;;5031469;28;20159;-64
2024/02/24 01:50:45;;;;;;;10.32;5.40;;;;;;;;;;5014250;28;20056;-64
2024/02/24 01:53:11;;;;;;;13.30;6.03;;;;;;;;;;5030428;28;20539;-64
2024/02/24 01:55:37;;;;;;;11.73;5.90;;;;;;;;;;5032912;28;20046;-64
2024/02/24 01:58:04;;;;;;;12.07;6.70;;;;;;;;;;5029872;28;20401;-64
2024/02/24 02:00:30;;;;;;;10.95;5.50;;;;;;;;;;5027176;28;20432;-64
2024/02/24 02:02:57;;;;;;;13.65;5.95;;;;;;;;;;5023803;28;20046;-64
2024/02/24 02:05:23;;;;;;;11.25;5.63;;;;;;;;;;5033878;28;20086;-64
2024/02/24 02:07:50;;;;;;;12.80;6.18;;;;;;;;;;5027394;28;20114;-64
2024/02/24 02:10:16;;;;;;;11.88;6.63;;;;;;;;;;5013913;28;20040;-64
2024/02/24 02:12:42;;;;;;;10.00;6.00;;;;;;;;;;5031470;28;20434;-64
2024/02/24 02:15:09;;;;;;;8.80;5.82;;;;;;;;;;5027666;28;20038;-64
2024/02/24 02:17:35;;;;;;;11.30;6.72;;;;;;;;;;5026567;28;20116;-64
2024/02/24 02:20:03;;;;;;;16.15;7.40;;;;;;;;;;5023850;28;20049;-64
2024/02/24 02:22:31;;;;;;;11.57;5.82;;;;;;;;;;5024657;28;20053;-64
2024/02/24 02:24:57;;;;;;;12.40;7.15;;;;;;;;;;5032559;28;20113;-64
2024/02/24 02:27:23;;;;;;;10.07;6.72;;;;;;;;;;5031938;28;20126;-64
2024/02/24 02:29:49;;;;;;;11.98;7.40;;;;;;;;;;5031185;28;20052;-64
2024/02/24 02:32:15;;;;;;;13.63;7.65;;;;;;;;;;5028839;28;20041;-64
2024/02/24 02:34:42;;;;;;;11.98;6.72;;;;;;;;;;5026558;28;20129;-64
2024/02/24 02:37:08;;;;;;;14.55;7.35;;;;;;;;;;5023803;28;20067;-64
2024/02/24 02:39:34;;;;;;;9.98;6.95;;;;;;;;;;5023577;28;20041;-64
2024/02/24 02:42:00;;;;;;;10.82;7.07;;;;;;;;;;5023999;28;20116;-64
2024/02/24 02:44:26;;;;;;;11.35;6.70;;;;;;;;;;5026089;28;20034;-64
2024/02/24 02:46:52;;;;;;;12.48;6.65;;;;;;;;;;5025704;28;20168;-64
2024/02/24 02:49:19;;;;;;;10.32;6.10;;;;;;;;;;5023892;28;20374;-64
2024/02/24 02:51:45;;;;;;;11.23;6.40;;;;;;;;;;5029089;28;20578;-64
2024/02/24 02:54:12;;;;;;;10.10;7.13;;;;;;;;;;5025607;28;20045;-64
2024/02/24 02:56:38;;;;;;;13.27;6.88;;;;;;;;;;5026814;28;20176;-64
2024/02/24 02:59:04;;;;;;;10.35;7.53;;;;;;;;;;5027152;28;20040;-64
2024/02/24 03:01:30;;;;;;;11.90;6.38;;;;;;;;;;5034485;28;20068;-64
2024/02/24 03:03:56;;;;;;;12.32;6.70;;;;;;;;;;5030159;28;20449;-64
2024/02/24 03:06:24;;;;;;;12.68;6.55;;;;;;;;;;5032777;28;20037;-64
2024/02/24 03:08:51;;;;;;;11.27;6.93;;;;;;;;;;5029842;28;20049;-64
2024/02/24 03:11:17;;;;;;;12.10;6.55;;;;;;;;;;5030959;28;20037;-64
2024/02/24 03:13:44;;;;;;;12.35;6.45;;;;;;;;;;5028255;28;20115;-64
2024/02/24 03:16:10;;;;;;;11.95;6.72;;;;;;;;;;5031094;28;20042;-64
2024/02/24 03:18:36;;;;;;;13.98;7.03;;;;;;;;;;5025461;28;20400;-64
2024/02/24 03:21:02;;;;;;;9.70;6.60;;;;;;;;;;5027246;28;20121;-64
2024/02/24 03:23:29;;;;;;;17.95;6.72;;;;;;;;;;5021282;28;20075;-64
2024/02/24 03:25:55;;;;;;;11.88;6.35;;;;;;;;;;5024280;28;20044;-64
2024/02/24 03:28:21;;;;;;;9.70;5.80;;;;;;;;;;5022000;28;20159;-64
2024/02/24 03:30:47;;;;;;;13.27;6.90;;;;;;;;;;5022956;28;20101;-64
2024/02/24 03:33:14;;;;;;;11.85;5.90;;;;;;;;;;5023474;28;20529;-64
2024/02/24 03:35:40;;;;;;;9.95;5.95;;;;;;;;;;5023110;28;20033;-64
2024/02/24 03:38:06;;;;;;;13.98;6.90;;;;;;;;;;5024504;28;20101;-64
2024/02/24 03:40:32;;;;;;;13.45;6.78;;;;;;;;;;5024438;28;20121;-64
2024/02/24 03:42:58;;;;;;;16.02;6.18;;;;;;;;;;5027479;28;20107;-64
2024/02/24 03:45:25;;;;;;;11.35;6.78;;;;;;;;;;5021403;28;20565;-64
2024/02/24 03:47:51;;;;;;;12.02;6.90;;;;;;;;;;5027011;28;20065;-64
2024/02/24 03:50:18;;;;;;;9.95;6.18;;;;;;;;;;5026480;28;20084;-64
2024/02/24 03:52:44;;;;;;;12.50;6.10;;;;;;;;;;5027065;28;20057;-64
2024/02/24 03:55:10;;;;;;;10.63;7.07;;;;;;;;;;5019550;28;20048;-64
2024/02/24 03:57:36;;;;;;;11.02;5.68;;;;;;;;;;5023494;28;20077;-64
2024/02/24 04:00:04;;;;;;;14.45;6.15;;;;;;;;;;5020958;28;20042;-64
2024/02/24 04:02:30;;;;;;;10.05;5.45;;;;;;;;;;5021228;28;20053;-64
2024/02/24 04:04:56;;;;;;;12.25;6.43;;;;;;;;;;5014454;28;21397;-64
2024/02/24 04:07:22;;;;;;;17.63;6.68;;;;;;;;;;5021011;28;20120;-64
2024/02/24 04:09:48;;;;;;;13.32;6.25;;;;;;;;;;5020052;28;20441;-64
2024/02/24 04:12:15;;;;;;;9.38;5.22;;;;;;;;;;5023455;28;20100;-64
2024/02/24 04:14:41;;;;;;;8.65;5.28;;;;;;;;;;5023143;28;20042;-63
2024/02/24 04:17:07;;;;;;;8.57;5.72;;;;;;;;;;5021115;28;20536;-64
2024/02/24 04:19:33;;;;;;;10.95;5.13;;;;;;;;;;5021590;28;20038;-63
2024/02/24 04:21:59;;;;;;;8.23;4.85;;;;;;;;;;5021449;28;20054;-64
2024/02/24 04:24:25;;;;;;;7.82;4.55;;;;;;;;;;5020067;28;20377;-64
2024/02/24 04:26:52;;;;;;;10.88;4.57;;;;;;;;;;5018414;28;20103;-64
2024/02/24 04:29:18;;;;;;;9.65;4.43;;;;;;;;;;5030048;28;20067;-63
2024/02/24 04:31:44;;;;;;;8.27;4.80;;;;;;;;;;5030206;28;20081;-64
2024/02/24 04:34:10;;;;;;;9.40;4.10;;;;;;;;;;5023175;28;20119;-64
2024/02/24 04:36:40;;;;;;;9.98;4.70;;;;;;;;;;5036044;28;20062;-64
2024/02/24 04:39:06;;;;;;;8.95;4.55;;;;;;;;;;5031393;28;20134;-64
2024/02/24 04:41:33;;;;;;;11.13;4.38;;;;;;;;;;5032645;28;20774;-64
2024/02/24 04:43:59;;;;;;;6.25;3.58;;;;;;;;;;5029858;28;20527;-64
2024/02/24 04:46:25;;;;;;;12.35;4.75;;;;;;;;;;5030459;28;20056;-64
2024/02/24 04:48:52;;;;;;;9.15;4.18;;;;;;;;;;5031636;28;20456;-64
2024/02/24 04:51:20;;;;;;;8.65;4.13;;;;;;;;;;5020016;28;20060;-64
2024/02/24 04:53:48;;;;;;;10.85;5.15;;;;;;;;;;5025595;28;20049;-64
2024/02/24 04:56:16;;;;;;;9.35;4.95;;;;;;;;;;5029425;28;20037;-64
2024/02/24 04:58:43;;;;;;;12.02;5.13;;;;;;;;;;5031085;28;20124;-64
2024/02/24 05:01:09;;;;;;;12.65;5.30;;;;;;;;;;5035285;28;20037;-64
2024/02/24 05:03:35;;;;;;;10.93;5.15;;;;;;;;;;5041013;28;20816;-65
2024/02/24 05:06:02;;;;;;;10.18;4.78;;;;;;;;;;5029773;28;20121;-64
2024/02/24 05:08:28;;;;;;;13.57;5.05;;;;;;;;;;5021298;28;20046;-64
2024/02/24 05:10:54;;;;;;;8.10;4.55;;;;;;;;;;5038539;28;20045;-64
2024/02/24 05:13:20;;;;;;;9.57;4.88;;;;;;;;;;5034225;28;20120;-64
2024/02/24 05:15:46;;;;;;;8.48;4.57;;;;;;;;;;5029325;28;20049;-65
2024/02/24 05:18:13;;;;;;;15.07;5.43;;;;;;;;;;5042435;28;20384;-64
2024/02/24 05:20:40;;;;;;;11.32;5.63;;;;;;;;;;5039265;28;20405;-64
2024/02/24 05:23:06;;;;;;;12.65;5.78;;;;;;;;;;5037253;28;20044;-64
2024/02/24 05:25:33;;;;;;;13.35;6.63;;;;;;;;;;5034412;28;20065;-64
2024/02/24 05:28:00;;;;;;;11.65;5.53;;;;;;;;;;5035174;28;20098;-65
2024/02/24 05:30:26;;;;;;;9.07;5.75;;;;;;;;;;5018270;28;20472;-64
2024/02/24 05:32:53;;;;;;;13.35;6.78;;;;;;;;;;5026725;28;20596;-64
2024/02/24 05:35:19;;;;;;;10.52;6.32;;;;;;;;;;5025768;28;20042;-64
2024/02/24 05:37:45;;;;;;;12.45;6.25;;;;;;;;;;5026250;28;20042;-64
2024/02/24 05:40:11;;;;;;;17.13;7.03;;;;;;;;;;5027241;28;20132;-64
2024/02/24 05:42:38;;;;;;;11.07;6.47;;;;;;;;;;5023628;28;20107;-64
2024/02/24 05:45:04;;;;;;;11.13;6.60;;;;;;;;;;5027751;28;20048;-64
2024/02/24 05:47:31;;;;;;;11.77;6.57;;;;;;;;;;5030945;28;20104;-64
2024/02/24 05:49:57;;;;;;;11.85;7.30;;;;;;;;;;5017266;28;20045;-64
2024/02/24 05:52:23;;;;;;;14.68;6.90;;;;;;;;;;5023123;28;20048;-65
2024/02/24 05:54:49;;;;;;;12.57;6.93;;;;;;;;;;5018878;28;20438;-64
2024/02/24 05:57:15;;;;;;;15.88;8.40;;;;;;;;;;5027060;28;20167;-64
2024/02/24 05:59:41;;;;;;;12.98;7.32;;;;;;;;;;5037358;28;20036;-64
2024/02/24 06:02:08;;;;;;;13.30;7.68;;;;;;;;;;5034836;28;20045;-64
2024/02/24 06:04:34;;;;;;;12.40;7.30;;;;;;;;;;5026087;28;20082;-64
2024/02/24 06:07:00;;;;;;;12.82;7.32;;;;;;;;;;5038713;28;20049;-64
2024/02/24 06:09:26;;;;;;;12.43;7.45;;;;;;;;;;5019987;28;20046;-64
2024/02/24 06:11:53;;;;;;;13.27;7.82;;;;;;;;;;5024991;28;20386;-65
2024/02/24 06:14:19;;;;;;;15.10;8.02;;;;;;;;;;5019713;28;20121;-64
2024/02/24 06:16:45;;;;;;;13.38;8.60;;;;;;;;;;5019257;28;20092;-64
2024/02/24 06:19:11;;;;;;;14.52;8.60;;;;;;;;;;5029001;28;20041;-64
2024/02/24 06:21:37;;;;;;;15.55;8.57;;;;;;;;;;5027781;28;20262;-64
2024/02/24 06:24:04;;;;;;;16.38;9.43;;;;;;;;;;5024487;28;20124;-64
2024/02/24 06:26:30;;;;;;;14.38;8.35;;;;;;;;;;5030929;28;20472;-64
2024/02/24 06:28:56;;;;;;;13.70;8.80;;;;;;;;;;4986900;28;1152955;-64
2024/02/24 06:31:22;;;;;;;16.80;8.65;;;;;;;;;;5029821;28;20080;-64
2024/02/24 06:33:49;;;;;;;19.60;9.00;;;;;;;;;;5033902;28;20046;-64
2024/02/24 06:36:15;;;;;;;15.00;8.63;;;;;;;;;;5031360;28;20049;-63
2024/02/24 06:38:41;;;;;;;16.42;8.10;;;;;;;;;;5032004;28;20057;-64
2024/02/24 06:41:08;;;;;;;17.58;8.57;;;;;;;;;;5031901;28;20093;-64
2024/02/24 06:43:34;;;;;;;18.02;8.75;;;;;;;;;;5033252;28;20045;-64
2024/02/24 06:46:00;;;;;;;26.15;9.45;;;;;;;;;;5033136;28;20046;-64
2024/02/24 06:48:26;;;;;;;19.25;8.35;;;;;;;;;;5026655;28;20060;-64
2024/02/24 06:50:52;;;;;;;18.23;8.93;;;;;;;;;;5021725;28;20464;-64
2024/02/24 06:53:19;;;;;;;14.63;8.95;;;;;;;;;;5019667;28;20041;-64
2024/02/24 06:55:45;;;;;;;15.95;9.27;;;;;;;;;;5025925;28;20049;-64
2024/02/24 06:58:11;;;;;;;13.80;8.82;;;;;;;;;;5020346;28;20604;-64
2024/02/24 07:00:37;;;;;;;12.95;7.45;;;;;;;;;;5024806;28;20140;-64
2024/02/24 07:03:03;;;;;;;14.77;8.50;;;;;;;;;;5027347;28;20052;-64
2024/02/24 07:05:31;;;;;;;14.68;8.45;;;;;;;;;;5027897;28;20045;-64
2024/02/24 07:07:57;;;;;;;16.70;8.13;;;;;;;;;;5028205;28;20091;-65
2024/02/24 07:10:24;;;;;;;17.45;7.88;;;;;;;;;;5028159;28;20037;-64
2024/02/24 07:12:50;;;;;;;17.63;10.27;;;;;;;;;;5031884;28;20052;-64
2024/02/24 07:15:16;;;;;;;14.55;8.82;;;;;;;;;;5023727;28;20103;-64
2024/02/24 07:17:43;;;;;;;16.35;8.85;;;;;;;;;;5020413;28;20064;-64
2024/02/24 07:20:09;;;;;;;17.83;8.90;;;;;;;;;;5020128;28;20113;-64
2024/02/24 07:22:35;;;;;;;14.90;9.50;;;;;;;;;;5018349;28;20057;-64
2024/02/24 07:25:02;;;;;;;18.20;10.52;;;;;;;;;;5024643;28;20080;-64
2024/02/24 07:27:28;;;;;;;17.05;8.45;;;;;;;;;;5020204;28;20042;-64
2024/02/24 07:29:54;;;;;;;14.25;8.18;;;;;;;;;;5022713;28;20049;-64
2024/02/24 07:32:21;;;;;;;14.18;9.05;;;;;;;;;;5021173;28;20101;-63
2024/02/24 07:34:47;;;;;;;17.70;9.80;;;;;;;;;;5021842;28;20064;-63
2024/02/24 07:37:13;;;;;;;15.18;9.25;;;;;;;;;;5026854;28;20396;-63
2024/02/24 07:39:39;;;;;;;17.52;9.63;;;;;;;;;;5021704;28;20103;-63
2024/02/24 07:42:05;;;;;;;19.17;9.02;;;;;;;;;;5021310;28;20112;-63
2024/02/24 07:44:32;;;;;;;15.25;9.05;;;;;;;;;;5022962;28;20109;-64
2024/02/24 07:46:58;;;;;;;15.13;9.30;;;;;;;;;;5025005;28;20128;-63
2024/02/24 07:49:24;;;;;;;14.40;9.27;;;;;;;;;;5008247;28;20044;-64
2024/02/24 07:51:51;;;;;;;14.60;9.75;;;;;;;;;;5024459;28;20092;-64
2024/02/24 07:54:17;;;;;;;13.40;9.13;;;;;;;;;;5021234;28;20046;-64
2024/02/24 07:56:43;;;;;;;16.45;9.93;;;;;;;;;;5020303;28;20077;-77
2024/02/24 07:59:09;;;;;;;15.45;9.45;;;;;;;;;;5011457;28;20147;-77
2024/02/24 08:01:35;;;;;;;14.48;9.15;;;;;;;;;;5020719;28;20103;-80
2024/02/24 08:04:01;;;;;;;15.52;9.25;;;;;;;;;;5024267;28;20034;-87
2024/02/24 08:06:29;;;;;;;15.40;9.00;;;;;;;;;;5028096;28;20444;-64
2024/02/24 08:08:55;;;;;;;18.25;9.38;;;;;;;;;;5025017;28;20056;-81
2024/02/24 08:11:21;;;;;;;18.85;9.18;;;;;;;;;;5004823;28;20077;-90
2024/02/24 08:13:47;;;;;;;16.15;9.20;;;;;;;;;;5000779;28;20054;-86
2024/02/24 08:16:13;;;;;;;16.00;9.60;;;;;;;;;;5007882;28;20057;-71
2024/02/24 08:18:40;;;;;;;14.70;8.63;;;;;;;;;;5023054;28;20045;-72
2024/02/24 08:21:06;;;;;;;16.15;9.77;;;;;;;;;;5024661;28;20056;-64
2024/02/24 08:23:34;;;;;;;17.75;8.98;;;;;;;;;;5025257;28;20041;-64
2024/02/24 08:26:00;;;;;;;14.73;10.52;;;;;;;;;;5023198;28;20510;-64
2024/02/24 08:28:27;;;;;;;13.32;8.65;;;;;;;;;;5024842;28;20041;-64
2024/02/24 08:30:53;;;;;;;14.23;8.57;;;;;;;;;;5029762;28;20056;-64
2024/02/24 08:33:22;;;;;;;13.10;8.88;;;;;;;;;;5027703;28;20509;-64
2024/02/24 08:35:50;;;;;;;15.93;9.73;;;;;;;;;;5028789;28;20041;-64
2024/02/24 08:38:17;;;;;;;14.50;9.05;;;;;;;;;;5032957;28;20147;-64
2024/02/24 08:40:44;;;;;;;20.23;9.55;;;;;;;;;;5027886;28;20410;-64
2024/02/24 08:43:10;;;;;;;19.02;10.50;;;;;;;;;;5029634;28;20056;-63
2024/02/24 08:45:36;;;;;;;18.00;10.27;;;;;;;;;;5019362;28;20052;-64
2024/02/24 08:48:03;;;;;;;14.93;10.07;;;;;;;;;;5024027;28;20045;-63
2024/02/24 08:50:29;;;;;;;19.92;9.93;;;;;;;;;;5024989;28;20046;-72
2024/02/24 08:52:55;;;;;;;18.70;11.23;;;;;;;;;;5026098;28;20504;-64
2024/02/24 08:55:21;;;;;;;18.40;9.98;;;;;;;;;;5023801;28;20037;-64
2024/02/24 08:57:47;;;;;;;17.00;10.20;;;;;;;;;;5026591;28;20054;-63
2024/02/24 09:00:14;;;;;;;17.95;11.10;;;;;;;;;;5028024;28;20048;-83
2024/02/24 09:02:40;;;;;;;18.02;10.02;;;;;;;;;;5028448;28;20046;-64
2024/02/24 09:05:07;;;;;;;16.80;10.02;;;;;;;;;;5027599;28;20127;-64
2024/02/24 09:07:33;;;;;;;15.95;10.20;;;;;;;;;;5025486;28;20532;-82
2024/02/24 09:09:59;;;;;;;21.27;11.38;;;;;;;;;;5023284;28;20037;-64
2024/02/24 09:12:25;;;;;;;18.45;11.27;;;;;;;;;;5024469;28;20099;-64
2024/02/24 09:14:52;;;;;;;17.08;11.55;;;;;;;;;;5024476;28;20033;-64
2024/02/24 09:17:18;;;;;;;17.30;10.15;;;;;;;;;;5025233;28;20049;-64
2024/02/24 09:19:44;;;;;;;17.35;11.00;;;;;;;;;;5021830;28;20056;-64
2024/02/24 09:22:12;;;;;;;19.02;11.60;;;;;;;;;;5025805;28;20052;-65
2024/02/24 09:24:38;;;;;;;17.63;11.13;;;;;;;;;;5027178;28;20037;-64
2024/02/24 09:27:04;;;;;;;15.65;10.07;;;;;;;;;;5023170;28;21084;-64
2024/02/24 09:29:31;;;;;;;15.88;11.05;;;;;;;;;;5026828;28;20121;-64
2024/02/24 09:31:57;;;;;;;16.77;11.45;;;;;;;;;;5024340;28;20060;-64
2024/02/24 09:34:23;;;;;;;20.02;10.98;;;;;;;;;;5030366;28;20156;-64
2024/02/24 09:36:49;;;;;;;19.52;11.52;;;;;;;;;;5022598;28;20053;-64
2024/02/24 09:39:15;;;;;;;16.52;11.23;;;;;;;;;;5017214;28;20041;-64
2024/02/24 09:41:42;;;;;;;18.92;12.05;;;;;;;;;;5025045;28;20503;-64
2024/02/24 09:44:09;;;;;;;19.42;12.20;;;;;;;;;;5023943;28;20481;-64
2024/02/24 09:46:36;;;;;;;21.27;12.20;;;;;;;;;;5027347;28;20401;-64
2024/02/24 09:49:02;;;;;;;17.55;11.65;;;;;;;;;;5030341;28;20058;-64
2024/02/24 09:51:29;;;;;;;19.52;12.40;;;;;;;;;;5023110;28;20374;-64
2024/02/24 09:53:55;;;;;;;20.48;12.70;;;;;;;;;;5024893;28;20450;-65
2024/02/24 09:56:23;;;;;;;23.33;13.40;;;;;;;;;;5019371;28;20054;-64
2024/02/24 09:58:53;;;;;;;22.65;14.05;;;;;;;;;;5022953;28;20064;-64
2024/02/24 10:01:19;;;;;;;27.05;13.98;;;;;;;;;;5023261;28;20438;-65
2024/02/24 10:03:46;;;;;;;22.40;15.43;;;;;;;;;;5025380;28;20095;-64
2024/02/24 10:06:12;;;;;;;26.63;17.60;;;;;;;;;;5024613;28;20049;-64
2024/02/24 10:08:39;;;;;;;28.05;16.10;;;;;;;;;;5024026;28;20499;-64
2024/02/24 10:11:05;;;;;;;25.13;16.85;;;;;;;;;;5023505;28;20398;-64
2024/02/24 10:13:32;;;;;;;27.90;18.33;;;;;;;;;;5022030;28;20099;-64
2024/02/24 10:16:03;;;;;;;28.83;18.08;;;;;;;;;;5027110;28;20537;-64
2024/02/24 10:18:31;;;;;;;28.33;17.08;;;;;;;;;;5020857;28;20049;-64
2024/02/24 10:20:58;;;;;;;25.63;17.10;;;;;;;;;;5015408;28;20045;-64
2024/02/24 10:23:24;;;;;;;28.50;18.45;;;;;;;;;;5021060;28;20052;-64
2024/02/24 10:25:53;;;;;;;23.98;16.65;;;;;;;;;;5021615;28;20045;-64
2024/02/24 10:28:20;;;;;;;28.65;16.75;;;;;;;;;;5024002;28;20119;-64
2024/02/24 10:30:47;;;;;;;30.88;17.10;;;;;;;;;;5024913;28;20422;-64
2024/02/24 10:33:14;;;;;;;25.08;15.50;;;;;;;;;;5023783;28;20504;-64
2024/02/24 10:35:41;;;;;;;25.17;16.60;;;;;;;;;;5026797;28;20049;-64
2024/02/24 10:38:08;;;;;;;22.15;15.75;;;;;;;;;;5023802;28;20091;-64
2024/02/24 10:40:36;;;;;;;26.13;15.98;;;;;;;;;;5024583;28;20057;-64
2024/02/24 10:43:03;;;;;;;26.33;15.57;;;;;;;;;;5021564;28;20049;-64
2024/02/24 10:45:30;;;;;;;26.55;16.90;;;;;;;;;;5027976;28;20044;-64
2024/02/24 10:47:56;;;;;;;22.13;15.55;;;;;;;;;;5028947;28;20083;-64
2024/02/24 10:50:23;;;;;;;23.95;15.27;;;;;;;;;;5023972;28;20038;-64
2024/02/24 10:52:49;;;;;;;20.75;13.52;;;;;;;;;;5026458;28;20056;-64
2024/02/24 10:55:19;;;;;;;26.85;15.65;;;;;;;;;;5025849;28;20037;-64
2024/02/24 10:57:45;;;;;;;21.98;14.90;;;;;;;;;;5022605;28;20056;-64
2024/02/24 11:00:31;;;;;;;19.30;14.57;;;;;;;;;;5023874;28;20194;-64
2024/02/24 11:03:00;;;;;;;22.08;14.43;;;;;;;;;;5021059;28;20470;-64
2024/02/24 11:05:28;;;;;;;22.02;14.60;;;;;;;;;;5022614;28;20468;-64
2024/02/24 11:07:54;;;;;;;23.42;14.57;;;;;;;;;;5024001;28;20092;-64
2024/02/24 11:10:21;;;;;;;23.98;14.88;;;;;;;;;;5021611;28;20075;-64
2024/02/24 11:12:50;;;;;;;25.55;17.45;;;;;;;;;;5023342;28;20099;-64
2024/02/24 11:15:21;;;;;;;26.63;17.80;;;;;;;;;;5022124;28;20041;-62
2024/02/24 11:17:51;;;;;;;28.02;17.85;;;;;;;;;;5024614;28;20065;-64
2024/02/24 11:20:45;;;;;;;36.97;20.02;;;;;;;;;;5021436;28;20127;-64
2024/02/24 11:23:22;;;;;;;25.55;17.70;;;;;;;;;;5024037;28;20049;-64
2024/02/24 11:25:58;;;;;;;25.58;16.35;;;;;;;;;;5023717;28;20405;-64
2024/02/24 11:28:25;;;;;;;23.17;15.38;;;;;;;;;;5024589;28;20064;-64
2024/02/24 11:30:54;;;;;;;21.70;15.15;;;;;;;;;;5021709;28;20049;-64
2024/02/24 11:33:26;;;;;;;24.05;16.33;;;;;;;;;;5026817;28;20103;-65
2024/02/24 11:35:54;;;;;;;24.02;15.18;;;;;;;;;;5017480;28;20045;-65
2024/02/24 11:38:21;;;;;;;25.02;15.77;;;;;;;;;;5027007;28;20053;-65
2024/02/24 11:40:50;;;;;;;21.85;15.45;;;;;;;;;;5026093;28;20132;-65
2024/02/24 11:43:16;;;;;;;23.13;16.50;;;;;;;;;;5029102;28;20049;-65
2024/02/24 11:45:45;;;;;;;24.52;16.05;;;;;;;;;;5026752;28;20108;-65
2024/02/24 11:48:12;;;;;;;25.15;16.05;;;;;;;;;;5025428;28;20044;-65
2024/02/24 11:50:38;;;;;;;24.23;15.02;;;;;;;;;;5025529;28;20049;-65
2024/02/24 11:53:04;;;;;;;23.25;15.10;;;;;;;;;;5025991;28;20034;-65
2024/02/24 11:55:30;;;;;;;23.83;14.60;;;;;;;;;;5026625;28;20101;-66
2024/02/24 11:57:57;;;;;;;18.77;12.82;;;;;;;;;;5025027;28;20049;-65
2024/02/24 12:00:23;;;;;;;19.65;14.00;;;;;;;;;;5024429;28;20127;-65
2024/02/24 12:02:49;;;;;;;23.65;13.82;;;;;;;;;;5024206;28;20056;-66
2024/02/24 12:05:16;;;;;;;25.48;15.52;;;;;;;;;;5024963;28;20041;-65
2024/02/24 12:07:43;;;;;;;26.75;16.58;;;;;;;;;;5024427;28;20049;-65
2024/02/24 12:10:09;;;;;;;23.90;14.50;;;;;;;;;;5021487;28;20045;-64
2024/02/24 12:12:36;;;;;;;20.63;12.10;;;;;;;;;;5025795;28;20053;-65
2024/02/24 12:15:02;;;;;;;17.63;11.65;;;;;;;;;;5019278;28;20571;-64
2024/02/24 12:17:29;;;;;;;17.35;11.10;;;;;;;;;;5021225;28;20457;-64
2024/02/24 12:19:56;;;;;;;18.77;10.82;;;;;;;;;;5025442;28;20124;-64
2024/02/24 12:22:23;;;;;;;15.98;10.90;;;;;;;;;;5020692;28;20056;-64
2024/02/24 12:24:49;;;;;;;17.50;11.95;;;;;;;;;;5023612;28;20132;-64
2024/02/24 12:27:15;;;;;;;19.20;10.90;;;;;;;;;;5018613;28;20041;-64
2024/02/24 12:29:42;;;;;;;13.05;9.88;;;;;;;;;;5022238;28;20458;-64
2024/02/24 12:32:08;;;;;;;12.05;8.00;;;;;;;;;;5019751;28;20053;-64
2024/02/24 12:34:35;;;;;;;11.13;7.80;;;;;;;;;;5019327;28;20034;-64
2024/02/24 12:37:03;;;;;;;10.77;7.80;;;;;;;;;;5018607;28;20405;-64
2024/02/24 12:39:31;;;;;;;9.05;7.47;;;;;;;;;;5021251;28;20124;-64
2024/02/24 12:41:57;;;;;;;10.95;7.18;;;;;;;;;;5020081;28;20067;-64
2024/02/24 12:44:23;;;;;;;11.25;7.00;;;;;;;;;;5025153;28;20041;-64
2024/02/24 12:46:49;;;;;;;9.65;6.95;;;;;;;;;;5024301;28;20493;-64
2024/02/24 12:49:15;;;;;;;10.13;5.78;;;;;;;;;;5024933;28;20045;-64
2024/02/24 12:51:50;;;;;;;8.80;5.05;;;;;;;;;;5027291;28;20472;-64
2024/02/24 12:54:16;;;;;;;6.22;4.07;;;;;;;;;;5020967;28;20127;-64
2024/02/24 12:56:42;;;;;;;11.25;4.80;;;;;;;;;;5030115;28;20350;-64
2024/02/24 12:59:08;;;;;;;8.00;4.15;;;;;;;;;;5029931;28;20053;-65
2024/02/24 13:01:34;;;;;;;7.55;4.15;;;;;;;;;;5027073;28;20071;-65
2024/02/24 13:04:01;;;;;;;7.82;4.47;;;;;;;;;;5035345;28;20397;-65
2024/02/24 13:06:27;;;;;;;8.23;4.00;;;;;;;;;;5037176;28;20462;-64
2024/02/24 13:08:53;;;;;;;6.22;3.88;;;;;;;;;;5025817;28;20053;-66
2024/02/24 13:11:19;;;;;;;7.93;4.35;;;;;;;;;;5035327;28;20033;-65
2024/02/24 13:13:45;;;;;;;6.85;4.18;;;;;;;;;;5027903;28;20126;-64
2024/02/24 13:16:12;;;;;;;8.00;4.60;;;;;;;;;;5023942;28;20074;-64
2024/02/24 13:18:38;;;;;;;8.32;5.55;;;;;;;;;;5025760;28;20046;-65
2024/02/24 13:21:04;;;;;;;6.30;5.13;;;;;;;;;;5023292;28;20045;-64
2024/02/24 13:23:30;;;;;;;12.68;6.85;;;;;;;;;;5024866;28;20065;-64
2024/02/24 13:25:56;;;;;;;7.60;5.63;;;;;;;;;;5028870;28;20061;-64
2024/02/24 13:28:23;;;;;;;8.63;5.95;;;;;;;;;;5028372;28;20045;-65
2024/02/24 13:30:49;;;;;;;10.25;6.22;;;;;;;;;;5021260;28;20127;-68
2024/02/24 13:33:15;;;;;;;7.60;5.90;;;;;;;;;;5025879;28;20519;-68
2024/02/24 13:35:41;;;;;;;11.65;6.70;;;;;;;;;;5027386;28;20127;-68
2024/02/24 13:38:08;;;;;;;10.95;7.22;;;;;;;;;;5025814;28;20128;-68
2024/02/24 13:40:35;;;;;;;10.57;7.40;;;;;;;;;;5027164;28;20120;-70
2024/02/24 13:43:01;;;;;;;9.88;7.00;;;;;;;;;;5006103;28;20067;-65
2024/02/24 13:45:27;;;;;;;8.88;6.55;;;;;;;;;;5025505;28;20511;-84
2024/02/24 13:47:53;;;;;;;12.02;8.23;;;;;;;;;;5021755;28;20041;-64
2024/02/24 13:50:22;;;;;;;16.27;9.77;;;;;;;;;;5022029;28;20045;-65
2024/02/24 13:52:48;;;;;;;17.67;11.32;;;;;;;;;;5023133;28;20049;-65
2024/02/24 13:55:14;;;;;;;15.32;9.30;;;;;;;;;;5026305;28;20050;-65
2024/02/24 13:57:41;;;;;;;19.05;11.57;;;;;;;;;;5028881;28;20181;-65
2024/02/24 14:00:10;;;;;;;18.52;11.30;;;;;;;;;;5021739;28;20431;-65
2024/02/24 14:02:36;;;;;;;17.80;10.95;;;;;;;;;;5030839;28;20119;-65
2024/02/24 14:05:03;;;;;;;19.38;9.77;;;;;;;;;;5024001;28;20445;-65
2024/02/24 14:07:30;;;;;;;16.90;9.77;;;;;;;;;;5019229;28;20104;-65
2024/02/24 14:09:56;;;;;;;12.88;9.05;;;;;;;;;;5023787;28;20121;-65
2024/02/24 14:12:22;;;;;;;14.10;7.65;;;;;;;;;;5018294;28;20146;-65
2024/02/24 14:14:48;;;;;;;10.93;7.57;;;;;;;;;;5021227;28;20136;-65
2024/02/24 14:17:15;;;;;;;11.32;7.53;;;;;;;;;;5025966;28;20037;-65
2024/02/24 14:19:41;;;;;;;11.88;7.85;;;;;;;;;;5025314;28;20044;-65
2024/02/24 14:22:07;;;;;;;8.05;4.20;;;;;;;;;;5022592;28;20065;-65
2024/02/24 14:24:33;;;;;;;7.38;4.30;;;;;;;;;;5024888;28;20095;-78